createdAt,value
2023-05-25T02:02:26.064Z,7.3
2023-05-25T02:12:11.720Z,7.3
2023-05-25T02:22:13.923Z,7.2
2023-05-25T02:32:16.081Z,6.8
2023-05-25T02:52:20.326Z,6.7
2023-05-25T03:02:22.380Z,6.4
2023-05-25T03:12:24.790Z,6.2
2023-05-25T03:22:26.943Z,6
2023-05-25T03:32:28.745Z,5.9
2023-05-25T03:42:31.064Z,6.2
2023-05-25T03:52:33.128Z,6.3
2023-05-25T04:02:35.338Z,6.7
2023-05-25T04:12:37.563Z,6.8
2023-05-25T04:32:43.947Z,7.2
2023-05-25T04:42:43.868Z,7.7
2023-05-25T04:52:46.000Z,8.4
2023-05-25T05:02:48.725Z,8.2
2023-05-25T05:12:50.838Z,8.4
2023-05-25T05:22:52.586Z,8.5
2023-05-25T05:32:55.017Z,9
2023-05-25T05:52:59.861Z,9.8
2023-05-25T06:03:02.257Z,9.7
2023-05-25T06:13:04.137Z,10.6
2023-05-25T06:33:08.537Z,11.4
2023-05-25T06:53:12.807Z,10.6
2023-05-25T07:13:17.433Z,10.9
2023-05-25T07:33:22.429Z,10.5
2023-05-25T07:53:26.612Z,10.5
2023-05-25T08:13:30.981Z,10.8
2023-05-25T08:33:34.896Z,10.8
2023-05-25T08:43:36.973Z,11.1
2023-05-25T08:53:39.281Z,11.1
2023-05-25T09:03:41.621Z,11.4
2023-05-25T09:13:43.291Z,11.3
2023-05-25T09:23:45.273Z,11.3
2023-05-25T10:04:03.340Z,11.8
2023-05-25T10:23:58.068Z,12.5
2023-05-25T10:44:02.081Z,12.6
2023-05-25T11:04:06.280Z,13
2023-05-25T11:24:10.670Z,13.1
2023-05-25T11:44:15.108Z,13.6
2023-05-25T12:04:21.761Z,13.7
2023-05-25T12:24:25.068Z,13.8
2023-05-25T12:34:26.442Z,14.9
2023-05-25T12:44:28.496Z,14.9
2023-05-25T12:54:30.601Z,15.1
2023-05-25T13:04:32.724Z,14.9
2023-05-25T13:14:34.617Z,15.1
2023-05-25T13:24:36.527Z,15.4
2023-05-25T13:34:38.657Z,15.2
2023-05-25T13:44:40.925Z,15.6
2023-05-25T13:54:42.928Z,15.6
2023-05-25T14:04:44.650Z,15.7
2023-05-25T14:14:46.847Z,15.8
2023-05-25T14:34:50.684Z,16.1
2023-05-25T14:44:52.550Z,15.9
2023-05-25T14:54:54.310Z,16.3
2023-05-25T15:04:56.901Z,16.5
2023-05-25T15:14:58.782Z,15.7
2023-05-25T15:25:02.674Z,16.2
2023-05-25T15:35:03.189Z,15.8
2023-05-25T15:45:05.514Z,16.6
2023-05-25T15:55:07.569Z,16.9
2023-05-25T16:05:09.901Z,16.8
2023-05-25T16:15:11.727Z,16.2
2023-05-25T16:25:14.283Z,16
2023-05-25T16:35:16.583Z,16.4
2023-05-25T16:45:18.385Z,16.6
2023-05-25T16:55:20.463Z,16.1
2023-05-25T17:05:23.021Z,15.8
2023-05-25T17:25:28.208Z,16.4
2023-05-25T17:35:29.501Z,16.4
2023-05-25T17:45:31.936Z,16.5
2023-05-25T17:55:33.690Z,16.3
2023-05-25T18:05:35.787Z,16.3
2023-05-25T18:15:37.601Z,16.2
2023-05-25T18:25:39.381Z,16
2023-05-25T18:35:41.802Z,15.9
2023-05-25T18:45:44.093Z,15.9
2023-05-25T18:55:46.480Z,15.7
2023-05-25T19:05:48.335Z,15.5
2023-05-25T19:15:50.941Z,15.3
2023-05-25T19:25:53.155Z,14.8
2023-05-25T19:35:55.097Z,14.4
2023-05-25T19:45:57.308Z,14
2023-05-25T19:55:59.366Z,13.9
2023-05-25T20:06:01.628Z,13.8
2023-05-25T20:16:04.236Z,13.8
2023-05-25T20:26:06.590Z,13.3
2023-05-25T20:36:08.533Z,13.1
2023-05-25T20:46:11.086Z,12.9
2023-05-25T20:56:13.613Z,12.5
2023-05-25T21:06:15.874Z,12.3
2023-05-25T21:26:20.360Z,11.9
2023-05-25T21:36:22.195Z,11.5
2023-05-25T21:46:24.623Z,11.1
2023-05-25T21:56:26.779Z,10.8
2023-05-25T22:06:29.251Z,10.8
2023-05-25T22:16:31.151Z,10.6
2023-05-25T22:26:33.495Z,10.4
2023-05-25T22:36:35.472Z,10.3
2023-05-25T22:46:37.759Z,10.1
2023-05-25T23:06:42.362Z,9.7
2023-05-25T23:16:44.366Z,9.4
2023-05-25T23:26:46.913Z,9.2
2023-05-25T23:36:48.814Z,8.9
2023-05-25T23:46:51.033Z,8.6
2023-05-25T23:56:52.737Z,8.5
